createdAt,value
2019-04-07T00:00:37.084Z,13.50
2019-04-07T00:04:40.785Z,13.30
2019-04-07T00:08:44.424Z,13.20
2019-04-07T00:12:47.649Z,13.20
2019-04-07T00:16:51.795Z,13.10
2019-04-07T00:20:55.231Z,13.10
2019-04-07T00:24:58.401Z,13.00
2019-04-07T00:29:01.664Z,13.00
2019-04-07T00:33:06.802Z,13.00
2019-04-07T00:37:09.798Z,13.00
2019-04-07T00:41:12.937Z,12.90
2019-04-07T00:45:16.391Z,12.80
2019-04-07T00:49:19.549Z,12.70
2019-04-07T00:53:23.197Z,12.70
2019-04-07T00:57:27.491Z,12.70
2019-04-07T01:01:30.581Z,12.70
2019-04-07T01:05:38.381Z,12.80
2019-04-07T01:09:38.703Z,12.70
2019-04-07T01:13:41.864Z,12.70
2019-04-07T01:17:45.666Z,12.70
2019-04-07T01:21:48.894Z,12.70
2019-04-07T01:25:52.275Z,12.70
2019-04-07T01:29:55.493Z,12.70
2019-04-07T01:33:58.773Z,12.70
2019-04-07T01:38:02.402Z,12.70
2019-04-07T01:42:07.920Z,12.60
2019-04-07T01:46:12.892Z,12.50
2019-04-07T01:50:18.522Z,12.40
2019-04-07T01:54:38.463Z,12.50
2019-04-07T01:58:58.565Z,12.50
2019-04-07T02:03:04.789Z,12.50
2019-04-07T02:07:09.900Z,12.40
2019-04-07T02:11:23.698Z,12.40
2019-04-07T02:15:45.304Z,12.50
2019-04-07T02:20:00.262Z,12.40
2019-04-07T02:24:08.307Z,12.30
2019-04-07T02:28:15.757Z,12.40
2019-04-07T02:32:31.106Z,12.40
2019-04-07T02:36:38.748Z,12.20
2019-04-07T02:40:45.731Z,12.10
2019-04-07T02:45:07.611Z,11.90
2019-04-07T02:49:15.183Z,11.60
2019-04-07T02:53:26.139Z,11.60
2019-04-07T02:57:34.233Z,11.60
2019-04-07T03:01:41.864Z,11.60
2019-04-07T03:05:49.673Z,11.60
2019-04-07T03:09:57.447Z,11.70
2019-04-07T03:14:09.089Z,11.50
2019-04-07T03:18:16.840Z,11.30
2019-04-07T03:22:30.970Z,11.10
2019-04-07T03:26:44.786Z,11.20
2019-04-07T03:30:54.233Z,11.20
2019-04-07T03:35:12.673Z,11.30
2019-04-07T03:39:28.384Z,11.40
2019-04-07T03:43:35.953Z,11.20
2019-04-07T03:47:47.049Z,11.30
2019-04-07T03:52:09.724Z,11.20
2019-04-07T03:56:17.748Z,11.20
2019-04-07T04:01:03.629Z,11.10
2019-04-07T04:05:15.156Z,10.90
2019-04-07T04:09:22.962Z,10.90
2019-04-07T04:13:30.964Z,10.90
2019-04-07T04:17:34.523Z,11.00
2019-04-07T04:21:38.193Z,10.90
2019-04-07T04:25:41.454Z,11.00
2019-04-07T04:29:44.949Z,11.00
2019-04-07T04:33:48.548Z,11.10
2019-04-07T04:37:53.529Z,11.10
2019-04-07T04:41:57.771Z,11.10
2019-04-07T04:46:01.346Z,11.00
2019-04-07T04:51:23.926Z,11.10
2019-04-07T04:55:27.184Z,10.90
2019-04-07T04:59:31.162Z,10.90
2019-04-07T05:03:34.882Z,10.80
2019-04-07T05:07:49.806Z,10.90
2019-04-07T05:11:43.065Z,11.00
2019-04-07T05:15:46.831Z,11.00
2019-04-07T05:19:50.083Z,11.10
2019-04-07T05:23:53.890Z,11.30
2019-04-07T05:27:57.088Z,11.40
2019-04-07T05:32:00.185Z,11.40
2019-04-07T05:36:03.757Z,11.60
2019-04-07T05:40:06.916Z,11.70
2019-04-07T05:44:10.012Z,11.80
2019-04-07T05:48:13.251Z,11.90
2019-04-07T05:52:19.620Z,12.20
2019-04-07T05:56:25.991Z,12.50
2019-04-07T06:00:27.631Z,12.50
2019-04-07T06:04:31.430Z,12.50
2019-04-07T06:08:37.968Z,12.40
2019-04-07T06:12:43.283Z,12.50
2019-04-07T06:16:45.166Z,12.60
2019-04-07T06:20:48.567Z,12.50
2019-04-07T06:24:51.663Z,12.60
2019-04-07T06:28:58.443Z,12.70
2019-04-07T06:32:59.867Z,12.90
2019-04-07T06:37:04.354Z,13.30
2019-04-07T06:41:08.199Z,13.50
2019-04-07T06:45:14.031Z,13.80
2019-04-07T06:49:19.687Z,13.70
2019-04-07T06:53:41.377Z,14.10
2019-04-07T06:57:52.637Z,14.40
2019-04-07T07:02:14.840Z,14.80
2019-04-07T07:06:19.767Z,15.50
2019-04-07T07:10:30.316Z,15.40
2019-04-07T07:14:50.711Z,15.90
2019-04-07T07:19:14.216Z,16.40
2019-04-07T07:23:19.184Z,17.20
2019-04-07T07:27:22.863Z,17.00
2019-04-07T07:31:26.631Z,17.00
2019-04-07T07:35:29.740Z,16.80
2019-04-07T07:39:32.727Z,16.90
2019-04-07T07:43:35.838Z,16.60
2019-04-07T07:47:38.876Z,16.90
2019-04-07T07:51:45.123Z,17.00
2019-04-07T07:55:47.810Z,17.30
2019-04-07T07:59:50.977Z,17.90
2019-04-07T08:03:55.753Z,18.80
2019-04-07T08:07:59.368Z,19.00
2019-04-07T08:12:03.586Z,18.80
2019-04-07T08:16:06.892Z,19.00
2019-04-07T08:20:11.407Z,18.90
2019-04-07T08:24:17.634Z,19.20
2019-04-07T08:28:20.851Z,20.00
2019-04-07T08:32:28.045Z,20.80
2019-04-07T08:36:30.181Z,20.90
2019-04-07T08:40:36.459Z,21.80
2019-04-07T08:44:38.177Z,22.70
2019-04-07T08:48:41.241Z,22.80
2019-04-07T08:52:44.251Z,23.20
2019-04-07T08:56:49.109Z,23.20
2019-04-07T09:00:54.920Z,23.60
2019-04-07T09:04:57.961Z,23.20
2019-04-07T09:09:07.822Z,23.70
2019-04-07T09:13:10.981Z,25.00
2019-04-07T09:17:28.135Z,25.30
2019-04-07T09:21:37.314Z,24.70
2019-04-07T09:25:51.519Z,23.70
2019-04-07T09:29:58.250Z,24.90
2019-04-07T09:34:09.156Z,24.90
2019-04-07T09:38:29.422Z,23.20
2019-04-07T09:42:46.235Z,24.50
2019-04-07T09:46:54.158Z,25.40
2019-04-07T09:51:08.595Z,25.20
2019-04-07T09:55:26.785Z,24.90
2019-04-07T09:59:42.908Z,25.90
2019-04-07T10:03:47.943Z,25.30
2019-04-07T10:07:59.034Z,25.70
2019-04-07T10:12:13.040Z,24.70
2019-04-07T10:16:21.156Z,24.10
2019-04-07T10:20:26.384Z,23.50
2019-04-07T10:24:48.307Z,23.20
2019-04-07T10:29:10.989Z,23.80
2019-04-07T10:33:16.897Z,24.40
2019-04-07T10:37:31.471Z,23.20
2019-04-07T10:41:37.149Z,22.10
2019-04-07T10:45:45.730Z,23.10
2019-04-07T10:50:02.227Z,23.10
2019-04-07T10:54:04.926Z,22.80
2019-04-07T10:58:10.616Z,23.00
2019-04-07T11:02:19.645Z,23.40
2019-04-07T11:06:27.283Z,23.10
2019-04-07T11:10:40.828Z,22.40
2019-04-07T11:14:51.433Z,22.90
2019-04-07T11:19:11.316Z,22.70
2019-04-07T11:23:22.012Z,21.70
2019-04-07T11:27:27.643Z,22.00
2019-04-07T11:31:33.041Z,22.00
2019-04-07T11:35:41.396Z,22.50
2019-04-07T11:39:55.471Z,22.70
2019-04-07T11:44:07.382Z,22.80
2019-04-07T11:48:18.252Z,24.00
2019-04-07T11:52:39.837Z,22.90
2019-04-07T11:56:57.362Z,24.00
2019-04-07T12:01:04.728Z,23.60
2019-04-07T12:05:25.186Z,22.80
2019-04-07T12:09:33.624Z,22.90
2019-04-07T12:13:40.702Z,22.70
2019-04-07T12:17:51.332Z,22.90
2019-04-07T12:22:03.504Z,22.70
2019-04-07T12:26:09.351Z,22.30
2019-04-07T12:30:22.385Z,22.10
2019-04-07T12:34:46.373Z,22.40
2019-04-07T12:39:00.599Z,22.30
2019-04-07T12:43:14.114Z,22.30
2019-04-07T12:47:22.480Z,22.10
2019-04-07T12:51:28.870Z,22.00
2019-04-07T12:55:33.932Z,21.80
2019-04-07T12:59:48.729Z,22.50
2019-04-07T13:03:54.782Z,22.50
2019-04-07T13:08:03.132Z,22.20
2019-04-07T13:12:27.312Z,22.40
2019-04-07T13:16:32.417Z,22.10
2019-04-07T13:20:37.487Z,22.00
2019-04-07T13:24:48.199Z,22.10
2019-04-07T13:28:54.528Z,22.00
2019-04-07T13:33:09.143Z,22.80
2019-04-07T13:37:29.686Z,22.60
2019-04-07T13:41:42.581Z,21.70
2019-04-07T13:45:48.097Z,21.40
2019-04-07T13:50:08.657Z,21.40
2019-04-07T13:54:32.968Z,21.10
2019-04-07T13:58:50.919Z,21.90
2019-04-07T14:03:13.456Z,21.90
2019-04-07T14:07:19.736Z,22.00
2019-04-07T14:11:31.281Z,22.10
2019-04-07T14:15:36.863Z,22.60
2019-04-07T14:19:44.922Z,22.70
2019-04-07T14:23:55.696Z,22.90
2019-04-07T14:28:06.497Z,22.30
2019-04-07T14:32:28.429Z,21.80
2019-04-07T14:36:42.703Z,22.00
2019-04-07T14:40:52.210Z,21.80
2019-04-07T14:44:57.315Z,22.10
2019-04-07T14:49:02.250Z,22.20
2019-04-07T14:53:13.211Z,22.00
2019-04-07T14:57:24.487Z,22.30
2019-04-07T15:01:30.394Z,22.20
2019-04-07T15:05:35.456Z,21.80
2019-04-07T15:09:41.379Z,21.80
2019-04-07T15:13:47.440Z,21.60
2019-04-07T15:17:51.217Z,21.60
2019-04-07T15:21:55.385Z,21.90
2019-04-07T15:25:59.983Z,21.90
2019-04-07T15:30:13.270Z,21.90
2019-04-07T15:34:15.593Z,22.10
2019-04-07T15:38:22.985Z,22.40
2019-04-07T15:42:36.033Z,22.40
2019-04-07T15:46:28.817Z,22.20
2019-04-07T15:50:33.234Z,22.00
2019-04-07T15:54:37.073Z,22.00
2019-04-07T15:58:40.855Z,21.70
2019-04-07T16:02:44.459Z,21.70
2019-04-07T16:06:50.236Z,21.40
2019-04-07T16:10:53.639Z,21.00
2019-04-07T16:14:58.310Z,20.90
2019-04-07T16:19:01.482Z,20.60
2019-04-07T16:23:05.030Z,20.40
2019-04-07T16:27:08.961Z,20.70
2019-04-07T16:31:13.219Z,21.00
2019-04-07T16:35:16.701Z,20.90
2019-04-07T16:39:19.924Z,21.00
2019-04-07T16:43:23.887Z,20.90
2019-04-07T16:47:32.913Z,21.00
2019-04-07T16:51:33.879Z,21.10
2019-04-07T16:55:39.906Z,20.90
2019-04-07T16:59:43.587Z,20.70
2019-04-07T17:03:46.693Z,20.70
2019-04-07T17:07:49.739Z,20.50
2019-04-07T17:11:53.551Z,20.60
2019-04-07T17:15:59.213Z,20.60
2019-04-07T17:20:05.767Z,20.70
2019-04-07T17:24:08.905Z,20.50
2019-04-07T17:28:14.168Z,20.60
2019-04-07T17:32:18.805Z,20.70
2019-04-07T17:36:23.606Z,20.50
2019-04-07T17:40:30.744Z,20.30
2019-04-07T17:44:35.790Z,20.20
2019-04-07T17:48:56.764Z,20.10
2019-04-07T17:53:04.204Z,19.90
2019-04-07T17:57:10.031Z,19.80
2019-04-07T18:01:24.470Z,19.70
2019-04-07T18:05:34.520Z,19.50
2019-04-07T18:09:51.329Z,19.30
2019-04-07T18:14:02.123Z,19.20
2019-04-07T18:18:10.140Z,19.00
2019-04-07T18:22:22.739Z,18.80
2019-04-07T18:26:50.343Z,18.60
2019-04-07T18:31:05.630Z,18.40
2019-04-07T18:35:15.242Z,18.30
2019-04-07T18:39:36.981Z,18.10
2019-04-07T18:43:57.979Z,18.00
2019-04-07T18:48:04.474Z,17.80
2019-04-07T18:52:27.515Z,17.70
2019-04-07T18:56:38.607Z,17.70
2019-04-07T19:00:43.432Z,17.70
2019-04-07T19:04:48.895Z,17.60
2019-04-07T19:09:01.445Z,17.70
2019-04-07T19:13:27.377Z,17.70
2019-04-07T19:17:41.805Z,17.60
2019-04-07T19:22:04.565Z,17.60
2019-04-07T19:26:26.766Z,17.40
2019-04-07T19:30:37.786Z,17.40
2019-04-07T19:34:55.279Z,17.30
2019-04-07T19:39:21.390Z,17.30
2019-04-07T19:43:25.270Z,17.20
2019-04-07T19:47:34.494Z,17.20
2019-04-07T19:51:50.780Z,17.10
2019-04-07T19:55:57.991Z,17.10
2019-04-07T20:00:02.837Z,17.20
2019-04-07T20:04:14.265Z,17.10
2019-04-07T20:08:33.850Z,17.10
2019-04-07T20:12:47.288Z,17.10
2019-04-07T20:16:53.542Z,17.00
2019-04-07T20:21:01.364Z,16.90
2019-04-07T20:25:25.175Z,16.80
2019-04-07T20:29:46.545Z,16.80
2019-04-07T20:33:57.412Z,16.80
2019-04-07T20:38:19.394Z,16.80
2019-04-07T20:42:31.096Z,16.70
2019-04-07T20:46:41.854Z,16.70
2019-04-07T20:51:03.493Z,16.70
2019-04-07T20:55:17.446Z,16.70
2019-04-07T20:59:26.168Z,16.60
2019-04-07T21:03:49.631Z,16.60
2019-04-07T21:08:00.711Z,16.60
2019-04-07T21:12:18.491Z,16.50
2019-04-07T21:16:35.703Z,16.50
2019-04-07T21:20:40.782Z,16.50
2019-04-07T21:24:49.421Z,16.40
2019-04-07T21:29:02.452Z,16.50
2019-04-07T21:33:07.808Z,16.50
2019-04-07T21:37:15.837Z,16.50
2019-04-07T21:41:22.503Z,16.50
2019-04-07T21:45:40.695Z,16.50
2019-04-07T21:49:46.234Z,16.40
2019-04-07T21:53:55.166Z,16.40
2019-04-07T21:58:05.053Z,16.40
2019-04-07T22:02:13.663Z,16.50
2019-04-07T22:06:31.128Z,16.50
2019-04-07T22:10:36.010Z,16.50
2019-04-07T22:14:41.826Z,16.40
2019-04-07T22:18:45.391Z,16.30
2019-04-07T22:22:49.347Z,16.40
2019-04-07T22:26:53.061Z,16.40
2019-04-07T22:30:59.346Z,16.40
2019-04-07T22:35:06.528Z,16.40
2019-04-07T22:39:10.199Z,16.40
2019-04-07T22:43:16.651Z,16.30
2019-04-07T22:47:19.699Z,16.20
2019-04-07T22:51:23.197Z,15.80
2019-04-07T22:55:27.018Z,15.80
2019-04-07T22:59:30.277Z,15.90
2019-04-07T23:03:34.449Z,15.90
2019-04-07T23:07:37.532Z,15.80
2019-04-07T23:11:40.584Z,15.80
2019-04-07T23:15:45.865Z,15.90
2019-04-07T23:19:48.589Z,15.90
2019-04-07T23:23:51.696Z,15.80
2019-04-07T23:27:54.764Z,15.90
2019-04-07T23:31:59.766Z,15.90
2019-04-07T23:36:04.052Z,15.90
2019-04-07T23:40:07.268Z,15.90
2019-04-07T23:44:10.306Z,15.70
2019-04-07T23:48:13.767Z,15.60
2019-04-07T23:52:16.882Z,15.50
2019-04-07T23:56:19.905Z,15.50
